createdAt,value
2018-12-19T00:01:13.275Z,101148.25
2018-12-19T00:04:17.137Z,101145.05
2018-12-19T00:07:21.025Z,101143.23
2018-12-19T00:10:22.927Z,101140.53
2018-12-19T00:13:25.726Z,101141.34
2018-12-19T00:16:27.521Z,101142.84
2018-12-19T00:19:29.212Z,101141.50
2018-12-19T00:22:31.120Z,101141.98
2018-12-19T00:25:32.810Z,101127.50
2018-12-19T00:28:36.659Z,101132.73
2018-12-19T00:31:40.485Z,101136.01
2018-12-19T00:34:44.298Z,101128.08
2018-12-19T00:37:46.070Z,101122.31
2018-12-19T00:41:15.355Z,101123.64
2018-12-19T00:44:17.432Z,101120.02
2018-12-19T00:47:19.247Z,101110.73
2018-12-19T00:50:20.992Z,101111.61
2018-12-19T00:53:22.876Z,101112.76
2018-12-19T00:56:24.727Z,101107.87
2018-12-19T00:59:26.581Z,101112.09
2018-12-19T01:02:28.326Z,101113.48
2018-12-19T01:05:30.124Z,101117.34
2018-12-19T01:08:31.855Z,101130.56
2018-12-19T01:11:33.703Z,101115.92
2018-12-19T01:14:36.544Z,101124.19
2018-12-19T01:17:38.334Z,101124.17
2018-12-19T01:20:40.115Z,101122.46
2018-12-19T01:23:41.890Z,101117.42
2018-12-19T01:26:43.610Z,101113.38
2018-12-19T01:29:45.496Z,101108.36
2018-12-19T01:32:47.405Z,101111.89
2018-12-19T01:35:49.186Z,101108.36
2018-12-19T01:38:50.954Z,101104.98
2018-12-19T01:41:52.797Z,101106.48
2018-12-19T01:44:54.807Z,101104.63
2018-12-19T01:47:56.561Z,101099.64
2018-12-19T01:50:58.283Z,101099.16
2018-12-19T01:54:00.179Z,101090.61
2018-12-19T01:57:01.917Z,101087.59
2018-12-19T02:00:04.105Z,101091.69
2018-12-19T02:03:05.901Z,101083.96
2018-12-19T02:06:07.780Z,101082.30
2018-12-19T02:09:09.537Z,101070.52
2018-12-19T02:12:12.267Z,101066.20
2018-12-19T02:15:14.157Z,101062.20
2018-12-19T02:18:16.099Z,101053.08
2018-12-19T02:21:17.846Z,101045.45
2018-12-19T02:24:19.650Z,101041.20
2018-12-19T02:27:21.408Z,101039.14
2018-12-19T02:30:23.209Z,101026.96
2018-12-19T02:33:24.976Z,101023.27
2018-12-19T02:36:26.784Z,101018.55
2018-12-19T02:39:28.509Z,101018.91
2018-12-19T02:42:30.265Z,101016.58
2018-12-19T02:45:32.081Z,101011.55
2018-12-19T02:48:33.903Z,101003.15
2018-12-19T02:51:35.734Z,100997.44
2018-12-19T02:54:37.464Z,100996.92
2018-12-19T02:57:39.264Z,100997.39
2018-12-19T03:00:41.016Z,100990.97
2018-12-19T03:03:42.801Z,100992.32
2018-12-19T03:06:44.577Z,100992.00
2018-12-19T03:09:46.333Z,100997.03
2018-12-19T03:12:48.127Z,101009.78
2018-12-19T03:15:49.930Z,101002.61
2018-12-19T03:18:51.754Z,100999.50
2018-12-19T03:21:53.500Z,101001.16
2018-12-19T03:24:55.247Z,101009.79
2018-12-19T03:27:56.983Z,101010.03
2018-12-19T03:30:58.756Z,100997.38
2018-12-19T03:34:02.502Z,100991.88
2018-12-19T03:37:04.317Z,100989.55
2018-12-19T03:40:06.312Z,100979.66
2018-12-19T03:43:08.076Z,100986.85
2018-12-19T03:46:09.981Z,100988.15
2018-12-19T03:49:11.825Z,100999.92
2018-12-19T03:52:13.671Z,101004.94
2018-12-19T03:55:15.505Z,101001.77
2018-12-19T03:58:17.333Z,101006.67
2018-12-19T04:01:19.345Z,101002.02
2018-12-19T04:04:21.163Z,101000.05
2018-12-19T04:07:22.964Z,100997.89
2018-12-19T04:10:24.666Z,100998.90
2018-12-19T04:13:26.453Z,101002.43
2018-12-19T04:16:28.433Z,100994.36
2018-12-19T04:19:30.306Z,100989.44
2018-12-19T04:22:41.166Z,100984.11
2018-12-19T04:25:43.000Z,100989.87
2018-12-19T04:28:45.017Z,100976.06
2018-12-19T04:31:46.837Z,100969.38
2018-12-19T04:34:48.656Z,100980.38
2018-12-19T04:37:50.377Z,100976.72
2018-12-19T04:40:52.156Z,100977.63
2018-12-19T04:43:53.924Z,100971.27
2018-12-19T04:47:02.817Z,100977.69
2018-12-19T04:50:04.716Z,100989.31
2018-12-19T04:53:06.535Z,100984.73
2018-12-19T04:56:08.294Z,100979.66
2018-12-19T04:59:10.090Z,100988.05
2018-12-19T05:02:12.105Z,100983.86
2018-12-19T05:05:13.920Z,100981.37
2018-12-19T05:08:15.655Z,100979.70
2018-12-19T05:11:17.402Z,100974.67
2018-12-19T05:14:19.296Z,100977.84
2018-12-19T05:17:21.205Z,100982.52
2018-12-19T05:23:57.062Z,100977.95
2018-12-19T05:26:58.862Z,100989.77
2018-12-19T05:30:00.682Z,100981.69
2018-12-19T05:33:02.515Z,100978.67
2018-12-19T05:36:04.332Z,100985.06
2018-12-19T05:39:06.114Z,100988.95
2018-12-19T05:42:07.860Z,100981.02
2018-12-19T05:45:09.553Z,100972.66
2018-12-19T05:48:11.288Z,100977.38
2018-12-19T05:51:13.101Z,100967.27
2018-12-19T05:54:14.987Z,100970.33
2018-12-19T05:57:17.353Z,100965.30
2018-12-19T06:00:22.157Z,100958.60
2018-12-19T06:03:25.882Z,100957.45
2018-12-19T06:06:27.616Z,100956.59
2018-12-19T06:09:29.511Z,100967.36
2018-12-19T06:12:31.305Z,100964.31
2018-12-19T06:15:33.065Z,100961.62
2018-12-19T06:18:34.835Z,100948.49
2018-12-19T06:21:36.732Z,100946.79
2018-12-19T06:24:38.625Z,100943.73
2018-12-19T06:27:40.404Z,100950.62
2018-12-19T06:30:42.200Z,100939.95
2018-12-19T06:33:44.495Z,100933.52
2018-12-19T06:36:53.233Z,100931.14
2018-12-19T06:39:54.971Z,100929.44
2018-12-19T06:42:56.681Z,100929.44
2018-12-19T06:45:58.523Z,100927.05
2018-12-19T06:49:00.353Z,100925.02
2018-12-19T06:52:02.695Z,100917.66
2018-12-19T06:55:04.655Z,100927.77
2018-12-19T06:58:06.350Z,100920.72
2018-12-19T07:01:08.111Z,100919.67
2018-12-19T07:04:09.852Z,100913.55
2018-12-19T07:07:11.569Z,100927.22
2018-12-19T07:10:13.485Z,100924.02
2018-12-19T07:13:15.391Z,100919.55
2018-12-19T07:16:17.277Z,100912.48
2018-12-19T07:19:19.070Z,100903.30
2018-12-19T07:22:20.922Z,100898.48
2018-12-19T07:25:22.693Z,100893.64
2018-12-19T07:28:24.511Z,100895.54
2018-12-19T07:31:26.299Z,100898.89
2018-12-19T07:34:28.167Z,100894.08
2018-12-19T07:37:29.886Z,100900.54
2018-12-19T07:40:31.861Z,100893.83
2018-12-19T07:43:33.647Z,100900.23
2018-12-19T07:46:35.821Z,100902.30
2018-12-19T07:49:44.729Z,100888.84
2018-12-19T07:52:46.977Z,100878.38
2018-12-19T07:55:49.334Z,100872.82
2018-12-19T07:58:52.471Z,100871.22
2018-12-19T08:01:54.392Z,100868.52
2018-12-19T08:04:56.433Z,100869.50
2018-12-19T08:07:58.274Z,100871.41
2018-12-19T08:11:00.279Z,100883.73
2018-12-19T08:14:02.805Z,100885.05
2018-12-19T08:17:04.608Z,100880.94
2018-12-19T08:20:06.729Z,100879.82
2018-12-19T08:23:08.778Z,100876.87
2018-12-19T08:26:10.645Z,100867.80
2018-12-19T08:29:12.924Z,100866.28
2018-12-19T08:32:14.671Z,100869.19
2018-12-19T08:35:16.453Z,100873.25
2018-12-19T08:38:18.204Z,100876.43
2018-12-19T08:41:20.033Z,100876.73
2018-12-19T08:44:21.826Z,100881.23
2018-12-19T08:47:23.655Z,100882.97
2018-12-19T08:50:25.587Z,100890.55
2018-12-19T08:53:27.525Z,100898.16
2018-12-19T08:56:29.412Z,100902.63
2018-12-19T08:59:31.284Z,100903.16
2018-12-19T09:02:33.065Z,100897.23
2018-12-19T09:05:34.802Z,100891.46
2018-12-19T09:08:36.623Z,100895.54
2018-12-19T09:11:38.383Z,100893.78
2018-12-19T09:14:40.223Z,100879.41
2018-12-19T09:17:42.025Z,100879.55
2018-12-19T09:20:45.271Z,100868.16
2018-12-19T09:23:47.148Z,100873.03
2018-12-19T09:26:48.960Z,100865.64
2018-12-19T09:29:50.875Z,100865.26
2018-12-19T09:32:52.818Z,100867.61
2018-12-19T09:35:54.624Z,100865.47
2018-12-19T09:38:56.445Z,100862.86
2018-12-19T09:41:58.346Z,100857.34
2018-12-19T09:45:00.105Z,100854.30
2018-12-19T09:48:01.907Z,100855.96
2018-12-19T09:51:03.988Z,100859.01
2018-12-19T09:54:05.898Z,100852.49
2018-12-19T09:57:07.798Z,100843.47
2018-12-19T10:00:12.498Z,100848.41
2018-12-19T10:03:14.438Z,100838.50
2018-12-19T10:06:16.842Z,100825.89
2018-12-19T10:09:18.611Z,100823.67
2018-12-19T10:12:20.533Z,100817.72
2018-12-19T10:15:22.771Z,100819.19
2018-12-19T10:18:24.671Z,100812.10
2018-12-19T10:21:26.668Z,100814.81
2018-12-19T10:24:34.425Z,100812.94
2018-12-19T10:27:36.280Z,100805.44
2018-12-19T10:30:44.052Z,100806.98
2018-12-19T10:33:45.832Z,100806.37
2018-12-19T10:36:47.655Z,100804.19
2018-12-19T10:39:49.477Z,100796.25
2018-12-19T10:42:51.482Z,100804.20
2018-12-19T10:45:53.390Z,100797.41
2018-12-19T10:48:55.168Z,100795.22
2018-12-19T10:51:57.029Z,100787.31
2018-12-19T10:54:58.828Z,100782.50
2018-12-19T10:58:00.647Z,100776.03
2018-12-19T11:01:02.568Z,100773.84
2018-12-19T11:04:04.526Z,100766.00
2018-12-19T11:07:06.276Z,100762.59
2018-12-19T11:10:08.249Z,100761.84
2018-12-19T11:13:10.034Z,100758.48
2018-12-19T11:16:11.812Z,100761.81
2018-12-19T11:19:13.548Z,100756.79
2018-12-19T11:22:15.351Z,100748.13
2018-12-19T11:25:17.109Z,100743.22
2018-12-19T11:28:18.899Z,100745.30
2018-12-19T11:31:21.789Z,100733.22
2018-12-19T11:34:23.624Z,100724.66
2018-12-19T11:37:25.497Z,100718.31
2018-12-19T11:40:27.262Z,100710.50
2018-12-19T11:43:29.074Z,100712.98
2018-12-19T11:46:30.854Z,100710.05
2018-12-19T11:49:32.731Z,100711.81
2018-12-19T11:52:34.686Z,100711.48
2018-12-19T11:55:36.508Z,100710.83
2018-12-19T11:58:38.300Z,100716.25
2018-12-19T12:01:41.499Z,100715.69
2018-12-19T12:04:43.579Z,100720.16
2018-12-19T12:07:47.421Z,100708.30
2018-12-19T12:10:49.158Z,100703.62
2018-12-19T12:13:50.980Z,100704.22
2018-12-19T12:16:52.761Z,100707.07
2018-12-19T12:19:54.632Z,100707.13
2018-12-19T12:22:56.464Z,100706.00
2018-12-19T12:26:05.236Z,100709.29
2018-12-19T12:29:07.118Z,100707.16
2018-12-19T12:32:08.995Z,100707.61
2018-12-19T12:35:10.908Z,100708.94
2018-12-19T12:38:12.685Z,100694.23
2018-12-19T12:41:14.400Z,100699.86
2018-12-19T12:44:16.224Z,100685.64
2018-12-19T12:47:18.050Z,100681.80
2018-12-19T12:50:19.799Z,100672.20
2018-12-19T12:53:21.672Z,100659.53
2018-12-19T12:56:23.507Z,100656.28
2018-12-19T12:59:25.217Z,100656.98
2018-12-19T13:02:27.061Z,100647.50
2018-12-19T13:05:28.909Z,100643.01
2018-12-19T13:08:30.622Z,100638.42
2018-12-19T13:11:32.400Z,100638.05
2018-12-19T13:14:34.241Z,100639.41
2018-12-19T13:17:36.054Z,100637.61
2018-12-19T13:20:37.971Z,100641.12
2018-12-19T13:23:39.711Z,100640.24
2018-12-19T13:26:41.579Z,100633.86
2018-12-19T13:29:43.557Z,100630.66
2018-12-19T13:32:45.993Z,100628.38
2018-12-19T13:35:47.838Z,100624.06
2018-12-19T13:38:49.686Z,100618.56
2018-12-19T13:41:51.463Z,100619.92
2018-12-19T13:44:53.342Z,100621.72
2018-12-19T13:47:55.287Z,100627.33
2018-12-19T13:50:57.228Z,100618.33
2018-12-19T13:53:59.026Z,100627.83
2018-12-19T13:57:01.114Z,100620.61
2018-12-19T14:00:05.650Z,100622.59
2018-12-19T14:03:07.583Z,100611.04
2018-12-19T14:06:09.299Z,100606.81
2018-12-19T14:09:11.490Z,100603.09
2018-12-19T14:12:13.340Z,100605.19
2018-12-19T14:15:15.279Z,100598.30
2018-12-19T14:18:17.159Z,100603.14
2018-12-19T14:21:18.952Z,100596.92
2018-12-19T14:24:20.836Z,100602.09
2018-12-19T14:27:22.566Z,100605.31
2018-12-19T14:30:24.425Z,100602.92
2018-12-19T14:33:26.298Z,100607.18
2018-12-19T14:36:28.192Z,100606.77
2018-12-19T14:39:30.098Z,100603.80
2018-12-19T14:42:32.003Z,100609.80
2018-12-19T14:45:33.971Z,100607.31
2018-12-19T14:48:35.810Z,100612.69
2018-12-19T14:51:39.034Z,100607.88
2018-12-19T14:54:40.905Z,100598.28
2018-12-19T14:57:42.679Z,100600.38
2018-12-19T15:00:44.578Z,100593.94
2018-12-19T15:03:46.385Z,100599.81
2018-12-19T15:06:48.148Z,100601.02
2018-12-19T15:09:50.074Z,100605.99
2018-12-19T15:12:52.372Z,100607.00
2018-12-19T15:16:00.199Z,100607.73
2018-12-19T15:19:02.097Z,100599.90
2018-12-19T15:22:03.908Z,100594.08
2018-12-19T15:25:06.053Z,100600.98
2018-12-19T15:28:07.984Z,100602.23
2018-12-19T15:31:09.758Z,100605.86
2018-12-19T15:34:11.518Z,100607.23
2018-12-19T15:37:13.795Z,100606.41
2018-12-19T15:40:15.585Z,100603.99
2018-12-19T15:43:17.657Z,100614.70
2018-12-19T15:46:19.499Z,100607.91
2018-12-19T15:49:21.359Z,100597.34
2018-12-19T15:52:23.340Z,100590.52
2018-12-19T15:55:25.321Z,100590.55
2018-12-19T15:58:27.069Z,100585.13
2018-12-19T16:01:28.929Z,100592.65
2018-12-19T16:04:30.853Z,100587.70
2018-12-19T16:07:32.864Z,100588.77
2018-12-19T16:10:34.775Z,100581.23
2018-12-19T16:13:36.573Z,100581.67
2018-12-19T16:16:38.456Z,100574.70
2018-12-19T16:19:40.345Z,100572.37
2018-12-19T16:22:42.168Z,100572.77
2018-12-19T16:25:44.144Z,100571.55
2018-12-19T16:28:45.951Z,100566.13
2018-12-19T16:31:47.804Z,100572.91
2018-12-19T16:34:49.676Z,100575.14
2018-12-19T16:37:51.565Z,100555.41
2018-12-19T16:40:53.385Z,100564.28
2018-12-19T16:43:56.364Z,100556.44
2018-12-19T16:46:58.118Z,100557.49
2018-12-19T16:49:59.914Z,100560.50
2018-12-19T16:53:01.629Z,100551.09
2018-12-19T16:56:04.613Z,100550.89
2018-12-19T16:59:06.377Z,100550.45
2018-12-19T17:02:08.933Z,100544.30
2018-12-19T17:05:10.716Z,100541.15
2018-12-19T17:08:13.621Z,100538.97
2018-12-19T17:11:15.440Z,100545.90
2018-12-19T17:14:17.476Z,100540.38
2018-12-19T17:17:19.371Z,100544.92
2018-12-19T17:20:21.280Z,100548.47
2018-12-19T17:23:23.235Z,100541.39
2018-12-19T17:26:25.294Z,100539.94
2018-12-19T17:29:28.263Z,100534.06
2018-12-19T17:32:30.365Z,100524.91
2018-12-19T17:35:32.703Z,100527.01
2018-12-19T17:38:34.927Z,100533.17
2018-12-19T17:41:52.230Z,100511.78
2018-12-19T17:44:54.418Z,100519.22
2018-12-19T17:47:56.458Z,100517.86
2018-12-19T17:50:58.474Z,100518.86
2018-12-19T17:54:00.434Z,100523.41
2018-12-19T17:57:02.429Z,100519.23
2018-12-19T18:00:05.037Z,100505.03
2018-12-19T18:03:07.147Z,100520.88
2018-12-19T18:06:09.133Z,100519.43
2018-12-19T18:09:11.300Z,100523.12
2018-12-19T18:12:13.344Z,100513.77
2018-12-19T18:15:15.376Z,100520.84
2018-12-19T18:18:17.436Z,100518.86
2018-12-19T18:21:20.587Z,100523.08
2018-12-19T18:24:22.950Z,100521.58
2018-12-19T18:27:25.037Z,100517.21
2018-12-19T18:30:27.250Z,100511.55
2018-12-19T18:33:29.349Z,100506.70
2018-12-19T18:36:31.440Z,100513.49
2018-12-19T18:39:33.432Z,100505.34
2018-12-19T18:42:35.669Z,100505.37
2018-12-19T18:45:37.653Z,100502.06
2018-12-19T18:48:39.777Z,100497.08
2018-12-19T18:51:41.786Z,100492.67
2018-12-19T18:54:43.697Z,100489.08
2018-12-19T18:57:45.686Z,100497.99
2018-12-19T19:00:49.792Z,100495.09
2018-12-19T19:03:51.843Z,100499.31
2018-12-19T19:06:53.964Z,100498.50
2018-12-19T19:09:55.992Z,100492.89
2018-12-19T19:12:58.035Z,100492.70
2018-12-19T19:16:01.547Z,100484.27
2018-12-19T19:19:04.441Z,100485.92
2018-12-19T19:22:06.578Z,100478.41
2018-12-19T19:25:09.030Z,100485.19
2018-12-19T19:28:11.166Z,100480.09
2018-12-19T19:31:13.506Z,100482.56
2018-12-19T19:34:16.037Z,100478.22
2018-12-19T19:37:18.073Z,100471.44
2018-12-19T19:40:21.225Z,100478.11
2018-12-19T19:43:26.710Z,100483.44
2018-12-19T19:46:31.695Z,100477.19
2018-12-19T19:49:36.568Z,100466.77
2018-12-19T19:52:39.585Z,100472.02
2018-12-19T19:55:42.715Z,100468.86
2018-12-19T19:58:48.065Z,100464.17
2018-12-19T20:01:50.547Z,100472.80
2018-12-19T20:04:54.308Z,100465.80
2018-12-19T20:07:56.403Z,100454.13
2018-12-19T20:10:58.601Z,100449.58
2018-12-19T20:14:01.630Z,100450.75
2018-12-19T20:17:04.186Z,100448.77
2018-12-19T20:20:07.534Z,100442.91
2018-12-19T20:23:09.593Z,100448.28
2018-12-19T20:26:11.991Z,100442.91
2018-12-19T20:29:14.136Z,100447.17
2018-12-19T20:32:16.280Z,100443.55
2018-12-19T20:35:19.595Z,100435.94
2018-12-19T20:38:21.788Z,100441.08
2018-12-19T20:41:23.955Z,100438.36
2018-12-19T20:44:26.075Z,100431.06
2018-12-19T20:47:29.107Z,100440.16
2018-12-19T20:50:32.087Z,100440.88
2018-12-19T20:53:35.291Z,100434.88
2018-12-19T20:56:38.667Z,100438.51
2018-12-19T20:59:41.663Z,100434.34
2018-12-19T21:02:44.123Z,100433.32
2018-12-19T21:05:53.238Z,100433.42
2018-12-19T21:08:55.240Z,100441.39
2018-12-19T21:11:57.468Z,100431.97
2018-12-19T21:14:59.518Z,100446.81
2018-12-19T21:18:07.616Z,100448.86
2018-12-19T21:21:09.699Z,100450.75
2018-12-19T21:24:11.793Z,100446.98
2018-12-19T21:27:13.811Z,100435.11
2018-12-19T21:30:15.890Z,100449.16
2018-12-19T21:33:18.583Z,100444.76
2018-12-19T21:36:20.682Z,100440.88
2018-12-19T21:39:22.718Z,100441.08
2018-12-19T21:42:24.723Z,100441.70
2018-12-19T21:45:26.599Z,100436.05
2018-12-19T21:48:28.704Z,100438.13
2018-12-19T21:51:30.471Z,100443.30
2018-12-19T21:54:32.510Z,100439.33
2018-12-19T21:57:41.639Z,100439.72
2018-12-19T22:00:43.463Z,100432.69
2018-12-19T22:03:45.247Z,100441.00
2018-12-19T22:06:47.056Z,100435.33
2018-12-19T22:09:48.945Z,100436.83
2018-12-19T22:12:50.928Z,100438.25
2018-12-19T22:15:52.791Z,100441.88
2018-12-19T22:18:56.766Z,100442.17
2018-12-19T22:21:58.708Z,100436.30
2018-12-19T22:34:22.016Z,100430.96
2018-12-19T22:37:26.311Z,100429.78
2018-12-19T22:54:11.076Z,100421.31
2018-12-19T22:57:13.235Z,100414.97
2018-12-19T23:00:24.274Z,100411.52
2018-12-19T23:03:31.550Z,100407.11
2018-12-19T23:06:34.207Z,100400.31
2018-12-19T23:14:15.362Z,100403.47
2018-12-19T23:17:25.945Z,100402.28
2018-12-19T23:20:34.217Z,100404.56
2018-12-19T23:23:42.172Z,100414.39
2018-12-19T23:26:46.499Z,100406.95
2018-12-19T23:29:50.511Z,100401.16
2018-12-19T23:32:52.514Z,100404.11
2018-12-19T23:35:54.325Z,100399.98
2018-12-19T23:38:56.072Z,100399.73
2018-12-19T23:41:57.888Z,100397.81
2018-12-19T23:44:59.723Z,100398.67
2018-12-19T23:48:01.713Z,100382.47
2018-12-19T23:51:03.756Z,100385.66
2018-12-19T23:54:05.725Z,100387.80
2018-12-19T23:57:08.024Z,100380.24
